Time;durP1;ratioP1;P1;durP2;ratioP2;P2;SDS_P1;SDS_P2;PMS_P1;PMS_P2;Temp;Humidity;BMP_temperature;BMP_pressure;BME280_temperature;BME280_humidity;BME280_pressure;Samples;Min_cycle;Max_cycle;Signal;HPM_P1;HPM_P2
2022/09/12 00:01:11;;;;;;;4.57;1.50;;;25.70;99.90;;;;;;5047679;28;20095;-71
2022/09/12 00:03:39;;;;;;;3.30;1.35;;;25.80;99.90;;;;;;5030394;28;20047;-71
2022/09/12 00:06:13;;;;;;;2.67;1.27;;;25.80;99.90;;;;;;5030023;28;20041;-71
2022/09/12 00:08:42;;;;;;;3.22;1.42;;;25.70;99.90;;;;;;5030338;28;20098;-72
2022/09/12 00:11:11;;;;;;;4.63;1.88;;;25.70;99.90;;;;;;5048072;28;20040;-71
2022/09/12 00:13:40;;;;;;;3.90;1.38;;;25.70;99.90;;;;;;5013984;28;20076;-72
2022/09/12 00:16:21;;;;;;;3.60;1.40;;;25.60;99.90;;;;;;5029869;28;20049;-71
2022/09/12 00:18:50;;;;;;;4.75;2.20;;;25.60;99.90;;;;;;5048076;28;20045;-71
2022/09/12 00:21:18;;;;;;;2.78;1.17;;;25.50;99.90;;;;;;5047044;28;20045;-72
2022/09/12 00:23:46;;;;;;;4.15;1.85;;;25.40;99.90;;;;;;5046720;28;20080;-72
2022/09/12 00:26:14;;;;;;;11.27;1.88;;;25.40;99.90;;;;;;5046464;28;20049;-72
2022/09/12 00:28:41;;;;;;;3.22;1.30;;;25.40;99.90;;;;;;5030294;28;20138;-71
2022/09/12 00:31:13;;;;;;;6.55;2.22;;;25.30;99.90;;;;;;5030107;28;20041;-72
2022/09/12 00:33:41;;;;;;;5.53;1.70;;;25.30;99.90;;;;;;5048098;28;20049;-71
2022/09/12 00:36:14;;;;;;;4.40;1.40;;;25.30;99.90;;;;;;5046180;28;20071;-71
2022/09/12 00:38:42;;;;;;;5.20;1.55;;;25.20;99.90;;;;;;5029963;28;20720;-71
2022/09/12 00:41:19;;;;;;;4.88;1.90;;;25.20;99.90;;;;;;5030010;28;20060;-71
2022/09/12 00:43:49;;;;;;;3.78;1.90;;;25.20;99.90;;;;;;5026180;28;20144;-73
2022/09/12 00:46:42;;;;;;;4.03;1.55;;;25.20;99.90;;;;;;5026770;28;20059;-72
2022/09/12 00:49:31;;;;;;;5.68;1.88;;;25.20;99.90;;;;;;5043988;28;20500;-71
2022/09/12 00:52:12;;;;;;;3.03;0.98;;;25.20;99.90;;;;;;5026532;28;20348;-71
2022/09/12 00:55:26;;;;;;;3.78;1.48;;;25.20;99.90;;;;;;5026713;28;20045;-72
2022/09/12 00:58:09;;;;;;;5.00;1.63;;;25.20;99.90;;;;;;5004888;28;20205;-72
2022/09/12 01:00:37;;;;;;;3.95;1.33;;;25.10;99.90;;;;;;4992834;28;20060;-71
2022/09/12 01:03:14;;;;;;;4.55;1.42;;;25.10;99.90;;;;;;5026274;28;20131;-72
2022/09/12 01:05:49;;;;;;;6.15;2.17;;;25.10;99.90;;;;;;5010035;28;20406;-72
2022/09/12 01:08:17;;;;;;;4.38;1.75;;;25.10;99.90;;;;;;5026344;28;20037;-71
2022/09/12 01:10:45;;;;;;;5.00;1.90;;;25.10;99.90;;;;;;5027264;28;20049;-72
2022/09/12 01:13:13;;;;;;;2.75;1.42;;;25.10;99.90;;;;;;5031111;28;20136;-71
2022/09/12 01:15:41;;;;;;;3.95;1.48;;;25.10;99.90;;;;;;5031111;28;20403;-72
2022/09/12 01:18:29;;;;;;;4.95;1.45;;;25.10;99.90;;;;;;5012839;28;20049;-72
2022/09/12 01:21:20;;;;;;;5.75;1.98;;;25.10;99.90;;;;;;5031074;28;20038;-71
2022/09/12 01:23:47;;;;;;;7.95;1.60;;;25.10;99.90;;;;;;5009697;28;20053;-72
2022/09/12 01:26:40;;;;;;;4.78;1.35;;;25.00;99.90;;;;;;5030407;28;20037;-71
2022/09/12 01:29:14;;;;;;;3.83;1.63;;;25.00;99.90;;;;;;4998111;28;20046;-71
2022/09/12 01:32:06;;;;;;;5.03;1.40;;;25.00;99.90;;;;;;5030745;28;20049;-75
2022/09/12 01:35:06;;;;;;;3.42;1.30;;;25.00;99.90;;;;;;5013288;28;20499;-72
2022/09/12 01:37:59;;;;;;;4.20;1.50;;;24.90;99.90;;;;;;5016499;28;20129;-72
2022/09/12 01:40:36;;;;;;;3.65;1.30;;;24.90;99.90;;;;;;5030725;28;20053;-73
2022/09/12 01:43:25;;;;;;;2.78;1.30;;;24.80;99.90;;;;;;5013054;28;20147;-73
2022/09/12 01:46:05;;;;;;;5.45;1.77;;;24.80;99.90;;;;;;5012697;28;20057;-72
2022/09/12 01:48:37;;;;;;;4.80;1.50;;;24.80;99.90;;;;;;5012736;28;20056;-72
2022/09/12 01:51:22;;;;;;;2.50;1.20;;;24.80;99.90;;;;;;5012919;28;20042;-73
2022/09/12 01:53:57;;;;;;;4.57;1.25;;;24.70;99.90;;;;;;5012974;28;20056;-72
2022/09/12 01:56:28;;;;;;;4.38;1.20;;;24.70;99.90;;;;;;5013029;28;20243;-73
2022/09/12 01:59:11;;;;;;;5.55;1.58;;;24.70;99.90;;;;;;4996885;28;20053;-73
2022/09/12 02:01:49;;;;;;;3.95;1.33;;;24.70;99.90;;;;;;5028931;28;20076;-72
2022/09/12 02:04:33;;;;;;;3.97;2.08;;;24.60;99.90;;;;;;5028689;28;20136;-72
2022/09/12 02:07:31;;;;;;;3.45;1.70;;;24.60;99.90;;;;;;5028867;28;20149;-71
2022/09/12 02:10:17;;;;;;;3.78;1.33;;;24.60;99.90;;;;;;5009621;28;20049;-71
2022/09/12 02:13:05;;;;;;;2.38;1.55;;;24.60;99.90;;;;;;5012658;28;20091;-73
2022/09/12 02:15:42;;;;;;;5.30;1.98;;;24.60;99.90;;;;;;5028992;28;20048;-72
2022/09/12 02:18:14;;;;;;;3.90;1.30;;;24.60;99.90;;;;;;5033014;28;20043;-72
2022/09/12 02:20:44;;;;;;;3.70;1.05;;;24.50;99.90;;;;;;5032100;28;20086;-71
2022/09/12 02:23:20;;;;;;;3.75;1.08;;;24.50;99.90;;;;;;5048935;28;20052;-71
2022/09/12 02:25:52;;;;;;;5.35;1.92;;;24.50;99.90;;;;;;5048610;28;20045;-75
2022/09/12 02:28:34;;;;;;;4.07;1.33;;;24.40;99.90;;;;;;5048666;28;20530;-73
2022/09/12 02:31:12;;;;;;;3.45;1.30;;;24.40;99.90;;;;;;5031781;28;20395;-72
2022/09/12 02:34:13;;;;;;;6.05;1.42;;;24.40;99.90;;;;;;5049793;28;20786;-71
2022/09/12 02:36:44;;;;;;;4.38;1.27;;;24.40;99.90;;;;;;5048143;28;20076;-72
2022/09/12 02:39:11;;;;;;;2.95;1.67;;;24.40;99.90;;;;;;5031300;28;20052;-72
2022/09/12 02:41:39;;;;;;;3.67;1.65;;;24.40;99.90;;;;;;5015146;28;20491;-72
2022/09/12 02:44:07;;;;;;;5.30;1.40;;;24.40;99.90;;;;;;5047550;28;20045;-71
2022/09/12 02:46:45;;;;;;;3.22;1.77;;;24.40;99.90;;;;;;5031961;28;20049;-73
2022/09/12 02:49:14;;;;;;;4.45;1.55;;;24.40;99.90;;;;;;5049339;28;20068;-74
2022/09/12 02:51:42;;;;;;;3.17;1.35;;;24.40;99.90;;;;;;5047682;28;20045;-73
2022/09/12 02:54:11;;;;;;;5.85;1.40;;;24.40;99.90;;;;;;5047421;28;20056;-72
2022/09/12 02:56:42;;;;;;;3.70;1.52;;;24.40;99.90;;;;;;5047788;28;20130;-71
2022/09/12 02:59:17;;;;;;;8.10;1.63;;;24.30;99.90;;;;;;5049071;28;20114;-71
2022/09/12 03:02:13;;;;;;;2.30;1.40;;;24.40;99.90;;;;;;5041712;28;20517;-73
2022/09/12 03:04:53;;;;;;;4.03;1.50;;;24.40;99.90;;;;;;5047504;28;20055;-72
2022/09/12 03:07:42;;;;;;;2.58;1.20;;;24.30;99.90;;;;;;5047687;28;21012;-71
2022/09/12 03:10:21;;;;;;;7.70;3.00;;;24.30;99.90;;;;;;5029503;28;20151;-71
2022/09/12 03:13:15;;;;;;;2.33;1.58;;;24.30;99.90;;;;;;5047376;28;20052;-72
2022/09/12 03:16:18;;;;;;;4.15;1.58;;;24.30;99.90;;;;;;5047513;28;20045;-71
2022/09/12 03:19:02;;;;;;;4.32;1.10;;;24.30;99.90;;;;;;5030932;28;20495;-71
2022/09/12 03:21:57;;;;;;;7.28;1.73;;;24.20;99.90;;;;;;5047151;28;20083;-72
2022/09/12 03:24:48;;;;;;;3.70;1.33;;;24.20;99.90;;;;;;5047195;28;20490;-71
2022/09/12 03:27:26;;;;;;;6.28;2.17;;;24.20;99.90;;;;;;5047090;28;20041;-72
2022/09/12 03:29:55;;;;;;;3.78;1.38;;;24.20;99.90;;;;;;5030213;28;20049;-73
2022/09/12 03:32:43;;;;;;;3.92;1.20;;;24.10;99.90;;;;;;5030539;28;20057;-71
2022/09/12 03:35:12;;;;;;;4.32;1.80;;;24.10;99.90;;;;;;5046053;28;20522;-72
2022/09/12 03:37:39;;;;;;;3.78;1.48;;;24.10;99.90;;;;;;5046861;28;20144;-74
2022/09/12 03:40:09;;;;;;;3.60;1.63;;;24.00;99.90;;;;;;5046720;28;20068;-71
2022/09/12 03:42:37;;;;;;;2.22;1.20;;;24.00;99.90;;;;;;5030618;28;20081;-71
2022/09/12 03:45:06;;;;;;;3.80;1.83;;;24.00;99.90;;;;;;5048062;28;20406;-71
2022/09/12 03:47:34;;;;;;;6.28;1.23;;;24.00;99.90;;;;;;5046635;28;20045;-72
2022/09/12 03:50:02;;;;;;;6.95;1.58;;;23.90;99.90;;;;;;5047864;28;20144;-72
2022/09/12 03:52:30;;;;;;;4.22;1.20;;;23.90;99.90;;;;;;5030397;28;20143;-71
2022/09/12 03:54:57;;;;;;;4.65;1.40;;;23.90;99.90;;;;;;5013749;28;20053;-71
2022/09/12 03:57:25;;;;;;;3.30;1.67;;;23.80;99.90;;;;;;5046340;28;20052;-72
2022/09/12 03:59:52;;;;;;;5.35;1.90;;;23.80;99.90;;;;;;5047436;28;20529;-72
2022/09/12 04:02:20;;;;;;;5.35;1.25;;;23.80;99.90;;;;;;5030045;28;20423;-71
2022/09/12 04:04:48;;;;;;;6.00;1.75;;;23.80;99.90;;;;;;5044685;28;20049;-71
2022/09/12 04:07:16;;;;;;;2.83;1.27;;;23.70;99.90;;;;;;5046673;28;20055;-74
2022/09/12 04:09:43;;;;;;;2.90;1.70;;;23.80;99.90;;;;;;5029905;28;20085;-71
2022/09/12 04:12:12;;;;;;;4.43;1.30;;;23.70;99.90;;;;;;5047194;28;20145;-72
2022/09/12 04:14:40;;;;;;;3.58;1.60;;;23.70;99.90;;;;;;5046484;28;20053;-72
2022/09/12 04:17:08;;;;;;;5.57;1.83;;;23.70;99.90;;;;;;5030211;28;20045;-71
2022/09/12 04:19:35;;;;;;;2.65;1.40;;;23.70;99.90;;;;;;5030395;28;20094;-72
2022/09/12 04:22:04;;;;;;;4.00;1.40;;;23.60;99.90;;;;;;5046441;28;20033;-72
2022/09/12 04:24:31;;;;;;;2.90;1.55;;;23.60;99.90;;;;;;5013322;28;20041;-72
2022/09/12 04:26:59;;;;;;;2.80;1.33;;;23.60;99.90;;;;;;5029500;28;20079;-73
2022/09/12 04:29:28;;;;;;;4.45;1.67;;;23.60;99.90;;;;;;5046310;28;20045;-71
2022/09/12 04:31:56;;;;;;;3.72;1.65;;;23.60;99.90;;;;;;5029786;28;20057;-72
2022/09/12 04:34:23;;;;;;;3.50;1.88;;;23.50;99.90;;;;;;5046645;28;20053;-71
2022/09/12 04:36:51;;;;;;;5.25;1.92;;;23.50;99.90;;;;;;5013659;28;20049;-72
2022/09/12 04:39:18;;;;;;;3.75;1.75;;;23.50;99.90;;;;;;5045981;28;20053;-71
2022/09/12 04:41:46;;;;;;;4.55;1.52;;;23.40;99.90;;;;;;5046540;28;20052;-71
2022/09/12 04:44:14;;;;;;;5.03;2.55;;;23.40;99.90;;;;;;5047137;28;20045;-71
2022/09/12 04:46:44;;;;;;;3.17;1.67;;;23.50;99.90;;;;;;5050117;28;20061;-73
2022/09/12 04:49:15;;;;;;;3.35;1.92;;;23.40;99.90;;;;;;5050360;28;20449;-71
2022/09/12 04:51:42;;;;;;;5.38;2.63;;;23.40;99.90;;;;;;5050336;28;20592;-72
2022/09/12 04:54:15;;;;;;;5.38;2.38;;;23.50;99.90;;;;;;5051034;28;20049;-72
2022/09/12 04:56:44;;;;;;;3.78;1.70;;;23.50;99.90;;;;;;5050102;28;20446;-72
2022/09/12 04:59:14;;;;;;;3.17;1.58;;;23.50;99.90;;;;;;5047693;28;20052;-72
2022/09/12 05:01:42;;;;;;;4.80;1.40;;;23.60;99.90;;;;;;5050185;28;20430;-71
2022/09/12 05:04:11;;;;;;;4.70;1.83;;;23.70;99.90;;;;;;5016481;28;20045;-71
2022/09/12 05:06:40;;;;;;;6.68;1.92;;;23.80;99.90;;;;;;5033477;28;20171;-71
2022/09/12 05:09:10;;;;;;;7.20;2.20;;;23.90;99.90;;;;;;5033504;28;20049;-73
2022/09/12 05:11:42;;;;;;;6.22;1.55;;;24.10;99.90;;;;;;5033544;28;20052;-72
2022/09/12 05:14:31;;;;;;;6.30;1.50;;;24.30;99.90;;;;;;5049842;28;20091;-71
2022/09/12 05:17:00;;;;;;;9.07;1.50;;;24.40;99.90;;;;;;5049345;28;20073;-73
2022/09/12 05:19:29;;;;;;;3.72;1.70;;;24.60;99.90;;;;;;5049385;28;20064;-73
2022/09/12 05:21:57;;;;;;;3.88;1.95;;;24.70;99.90;;;;;;5032673;28;20049;-72
2022/09/12 05:24:25;;;;;;;4.13;1.90;;;24.80;99.90;;;;;;5032795;28;20434;-72
2022/09/12 05:26:53;;;;;;;5.38;1.58;;;24.90;99.90;;;;;;5016601;28;20048;-72
2022/09/12 05:29:21;;;;;;;8.63;2.28;;;25.10;99.90;;;;;;5032928;28;20056;-73
2022/09/12 05:31:50;;;;;;;3.22;1.77;;;25.30;99.90;;;;;;5048949;28;20106;-72
2022/09/12 05:34:19;;;;;;;3.92;1.73;;;25.40;99.90;;;;;;5032670;28;20084;-73
2022/09/12 05:36:47;;;;;;;6.28;1.55;;;25.50;99.90;;;;;;5050581;28;20045;-72
2022/09/12 05:39:14;;;;;;;5.20;1.67;;;25.70;99.90;;;;;;5032163;28;20063;-71
2022/09/12 05:41:42;;;;;;;3.08;1.63;;;25.80;99.90;;;;;;5032560;28;20499;-73
2022/09/12 05:44:13;;;;;;;5.63;1.92;;;25.90;99.90;;;;;;5048887;28;20471;-72
2022/09/12 05:46:43;;;;;;;9.35;2.60;;;26.10;99.90;;;;;;5032758;28;20106;-72
2022/09/12 05:49:12;;;;;;;4.63;2.03;;;26.20;99.90;;;;;;5050702;28;20033;-71
2022/09/12 05:51:42;;;;;;;7.35;1.98;;;26.40;99.90;;;;;;5032943;28;20194;-72
2022/09/12 05:54:13;;;;;;;4.30;1.63;;;26.50;99.90;;;;;;5033210;28;20124;-72
2022/09/12 05:56:42;;;;;;;7.07;1.80;;;26.70;99.90;;;;;;4995903;28;20566;-71
2022/09/12 05:59:13;;;;;;;5.25;2.53;;;26.80;99.70;;;;;;5028796;28;20041;-72
2022/09/12 06:01:41;;;;;;;2.92;1.60;;;26.90;99.70;;;;;;5029035;28;20052;-71
2022/09/12 06:04:09;;;;;;;5.10;1.58;;;27.00;99.40;;;;;;5028275;28;20072;-71
2022/09/12 06:06:40;;;;;;;5.40;1.75;;;27.20;99.20;;;;;;5029830;28;20096;-73
2022/09/12 06:09:08;;;;;;;4.38;2.22;;;27.30;99.00;;;;;;5011968;28;20048;-72
2022/09/12 06:11:39;;;;;;;3.88;2.05;;;27.40;98.80;;;;;;4996237;28;20248;-73
2022/09/12 06:14:09;;;;;;;7.57;1.48;;;27.50;98.70;;;;;;5028613;28;20049;-72
2022/09/12 06:16:37;;;;;;;6.53;1.70;;;27.60;98.70;;;;;;5012688;28;20053;-72
2022/09/12 06:19:11;;;;;;;6.88;1.60;;;27.80;98.50;;;;;;5028665;28;20063;-71
2022/09/12 06:21:39;;;;;;;2.60;1.60;;;27.90;98.40;;;;;;5028666;28;20274;-74
2022/09/12 06:24:06;;;;;;;5.75;1.80;;;28.00;98.10;;;;;;5028374;28;20037;-72
2022/09/12 06:26:35;;;;;;;4.80;1.70;;;28.10;98.00;;;;;;5028427;28;20048;-71
2022/09/12 06:29:03;;;;;;;7.95;2.05;;;28.30;98.00;;;;;;5028870;28;20071;-72
2022/09/12 06:31:33;;;;;;;4.07;1.60;;;28.40;97.80;;;;;;5028426;28;20052;-72
2022/09/12 06:34:08;;;;;;;5.90;1.92;;;28.50;97.50;;;;;;5028274;28;20125;-72
2022/09/12 06:36:40;;;;;;;6.15;1.95;;;28.50;97.30;;;;;;5028639;28;20049;-72
2022/09/12 06:39:17;;;;;;;5.47;2.00;;;28.60;97.20;;;;;;5028394;28;20061;-73
2022/09/12 06:41:45;;;;;;;2.75;1.42;;;28.70;97.10;;;;;;5012271;28;20054;-74
2022/09/12 06:44:18;;;;;;;9.02;2.38;;;28.70;96.80;;;;;;5011645;28;20148;-71
2022/09/12 06:46:46;;;;;;;3.63;1.83;;;28.80;96.70;;;;;;5024605;28;20045;-71
2022/09/12 06:49:14;;;;;;;3.92;1.52;;;28.90;96.60;;;;;;5048097;28;20059;-72
2022/09/12 06:51:42;;;;;;;6.25;1.83;;;28.90;96.40;;;;;;5049707;28;20106;-75
2022/09/12 06:54:13;;;;;;;7.70;1.65;;;29.00;96.10;;;;;;5048487;28;20135;-72
2022/09/12 06:56:41;;;;;;;4.63;2.30;;;29.00;96.10;;;;;;5048833;28;20048;-73
2022/09/12 06:59:10;;;;;;;4.30;2.00;;;29.00;95.90;;;;;;5028609;28;20049;-73
2022/09/12 07:01:38;;;;;;;3.13;2.00;;;29.10;95.80;;;;;;5012135;28;20071;-71
2022/09/12 07:04:06;;;;;;;6.90;1.90;;;29.20;95.70;;;;;;5028241;28;20049;-71
2022/09/12 07:06:40;;;;;;;6.28;1.90;;;29.30;95.20;;;;;;5028816;28;20049;-74
2022/09/12 07:09:11;;;;;;;3.70;1.60;;;29.40;95.10;;;;;;5028346;28;20041;-71
2022/09/12 07:11:40;;;;;;;5.50;1.90;;;29.50;95.10;;;;;;5028572;28;20081;-71
2022/09/12 07:14:10;;;;;;;4.10;2.20;;;29.60;94.90;;;;;;5011832;28;20440;-71
2022/09/12 07:16:38;;;;;;;4.05;2.28;;;29.80;94.90;;;;;;5028318;28;20042;-71
2022/09/12 07:19:07;;;;;;;5.07;2.65;;;29.90;94.50;;;;;;5028356;28;20049;-72
2022/09/12 07:21:38;;;;;;;5.50;2.20;;;29.90;93.80;;;;;;5028424;28;20044;-72
2022/09/12 07:24:08;;;;;;;4.55;1.85;;;29.90;94.00;;;;;;5028175;28;20053;-73
2022/09/12 07:26:36;;;;;;;6.05;2.10;;;29.90;93.80;;;;;;5011890;28;20144;-72
2022/09/12 07:29:04;;;;;;;4.32;1.92;;;30.00;93.70;;;;;;5028114;28;20096;-72
2022/09/12 07:31:51;;;;;;;4.95;2.30;;;30.00;93.70;;;;;;5011478;28;20407;-77
2022/09/12 07:34:19;;;;;;;5.18;2.00;;;30.00;93.70;;;;;;5029311;28;20144;-71
2022/09/12 07:36:46;;;;;;;5.28;1.88;;;30.10;93.20;;;;;;5027991;28;20045;-71
2022/09/12 07:39:14;;;;;;;4.55;1.65;;;30.00;93.20;;;;;;5027779;28;20055;-71
2022/09/12 07:41:41;;;;;;;3.72;2.03;;;30.20;93.30;;;;;;5012228;28;20056;-73
2022/09/12 07:44:09;;;;;;;6.25;2.05;;;30.30;93.40;;;;;;5027602;28;20063;-73
2022/09/12 07:46:37;;;;;;;5.20;2.00;;;30.20;92.80;;;;;;5028998;28;20096;-71
2022/09/12 07:49:04;;;;;;;3.95;2.90;;;30.10;92.70;;;;;;5027772;28;20407;-71
2022/09/12 07:51:32;;;;;;;5.35;2.38;;;30.20;92.80;;;;;;5011303;28;20127;-72
2022/09/12 07:53:59;;;;;;;3.10;1.77;;;30.10;92.70;;;;;;5010713;28;20049;-72
2022/09/12 07:56:28;;;;;;;4.10;2.35;;;30.20;92.60;;;;;;5027703;28;20460;-72
2022/09/12 07:58:57;;;;;;;5.03;2.30;;;30.40;93.00;;;;;;5027773;28;20066;-71
2022/09/12 08:01:25;;;;;;;5.75;2.17;;;30.50;93.20;;;;;;5010412;28;20396;-72
2022/09/12 08:03:56;;;;;;;4.13;2.22;;;30.60;92.90;;;;;;5043750;28;20133;-74
2022/09/12 08:06:25;;;;;;;3.75;2.28;;;30.70;92.80;;;;;;5055321;28;20079;-75
2022/09/12 08:08:55;;;;;;;3.65;2.25;;;30.80;92.70;;;;;;5048151;28;20079;-73
2022/09/12 08:11:24;;;;;;;7.90;2.70;;;30.70;92.40;;;;;;5025132;28;20069;-72
2022/09/12 08:13:54;;;;;;;4.47;2.08;;;30.60;92.50;;;;;;5059619;28;20172;-75
2022/09/12 08:16:25;;;;;;;14.50;3.83;;;30.50;92.60;;;;;;5053893;28;20044;-73
2022/09/12 08:18:53;;;;;;;7.05;2.75;;;30.40;92.80;;;;;;5028796;28;20041;-71
2022/09/12 08:21:26;;;;;;;7.20;2.20;;;30.40;92.40;;;;;;5012058;28;20425;-72
2022/09/12 08:23:56;;;;;;;4.10;1.85;;;30.50;92.80;;;;;;5013952;28;20573;-72
2022/09/12 08:26:24;;;;;;;3.67;2.20;;;30.40;92.50;;;;;;5030342;28;20045;-71
2022/09/12 08:28:52;;;;;;;5.30;2.17;;;30.50;92.60;;;;;;5032362;28;20041;-72
2022/09/12 08:31:22;;;;;;;9.15;2.47;;;30.60;92.70;;;;;;5014038;28;20046;-71
2022/09/12 08:33:50;;;;;;;3.45;2.17;;;30.70;92.20;;;;;;5031300;28;20053;-72
2022/09/12 08:36:21;;;;;;;3.63;1.98;;;30.80;92.40;;;;;;4868991;28;20354;-72
2022/09/12 08:38:54;;;;;;;6.05;2.20;;;30.60;91.80;;;;;;5041775;28;20053;-72
2022/09/12 08:41:39;;;;;;;4.72;2.22;;;30.60;91.40;;;;;;5022528;28;20041;-73
2022/09/12 08:44:56;;;;;;;4.72;2.50;;;30.50;91.90;;;;;;5028919;28;20056;-71
2022/09/12 08:47:30;;;;;;;3.40;2.17;;;30.60;92.10;;;;;;5009479;28;20127;-72
2022/09/12 08:50:07;;;;;;;3.70;2.23;;;30.70;90.60;;;;;;5031128;28;20523;-71
2022/09/12 08:53:09;;;;;;;8.95;2.17;;;30.80;90.80;;;;;;5032559;28;20112;-73
2022/09/12 08:55:43;;;;;;;9.80;2.53;;;30.90;90.90;;;;;;5015142;28;20170;-73
2022/09/12 08:58:15;;;;;;;4.60;2.00;;;30.80;89.80;;;;;;5014065;28;20077;-71
2022/09/12 09:01:08;;;;;;;3.60;2.40;;;30.90;89.20;;;;;;4998445;28;20105;-71
2022/09/12 09:03:39;;;;;;;3.67;2.42;;;30.80;89.50;;;;;;5014530;28;20047;-71
2022/09/12 09:06:51;;;;;;;5.03;2.33;;;30.80;89.50;;;;;;5030466;28;20037;-72
2022/09/12 09:10:05;;;;;;;6.40;2.30;;;30.90;89.70;;;;;;5030500;28;20049;-71
2022/09/12 09:12:45;;;;;;;5.88;2.00;;;31.00;90.50;;;;;;5030848;28;20038;-73
2022/09/12 09:15:32;;;;;;;4.68;2.65;;;30.80;90.30;;;;;;5030796;28;20109;-72
2022/09/12 09:18:21;;;;;;;4.07;1.90;;;30.90;90.80;;;;;;5014096;28;20411;-71
2022/09/12 09:20:55;;;;;;;4.00;2.00;;;30.70;91.20;;;;;;5014535;28;20148;-71
2022/09/12 09:23:34;;;;;;;5.97;2.20;;;30.60;91.10;;;;;;5030517;28;20056;-71
2022/09/12 09:26:09;;;;;;;5.15;2.28;;;30.50;90.40;;;;;;5030089;28;20115;-72
2022/09/12 09:28:44;;;;;;;4.20;2.45;;;30.60;90.00;;;;;;5013991;28;20061;-73
2022/09/12 09:31:15;;;;;;;4.70;2.30;;;30.70;90.00;;;;;;5013869;28;20050;-71
2022/09/12 09:33:45;;;;;;;5.57;2.42;;;30.80;90.40;;;;;;5026535;28;20041;-71
2022/09/12 09:36:21;;;;;;;4.35;2.00;;;30.80;88.20;;;;;;5049925;28;20041;-71
2022/09/12 09:38:59;;;;;;;6.45;2.65;;;30.80;86.30;;;;;;5017146;28;20126;-75
2022/09/12 09:41:29;;;;;;;3.45;2.45;;;30.90;85.90;;;;;;5050457;28;20051;-71
2022/09/12 09:43:57;;;;;;;3.42;2.30;;;31.00;85.50;;;;;;5051101;28;20550;-71
2022/09/12 09:46:27;;;;;;;4.85;2.22;;;31.10;85.30;;;;;;5017053;28;20053;-72
2022/09/12 09:48:58;;;;;;;5.75;2.03;;;31.10;85.00;;;;;;5050114;28;20487;-73
2022/09/12 09:51:31;;;;;;;4.90;1.88;;;31.00;85.50;;;;;;5049947;28;20041;-72
2022/09/12 09:54:23;;;;;;;6.55;2.03;;;31.00;85.60;;;;;;5033314;28;20102;-71
2022/09/12 09:56:51;;;;;;;2.67;1.55;;;31.20;86.00;;;;;;5050430;28;20053;-71
2022/09/12 09:59:18;;;;;;;5.18;1.90;;;30.90;86.30;;;;;;5017169;28;20395;-71
2022/09/12 10:01:53;;;;;;;4.50;2.13;;;31.00;86.70;;;;;;5050836;28;20037;-73
2022/09/12 10:04:26;;;;;;;5.72;2.00;;;31.00;87.10;;;;;;5033294;28;20082;-71
2022/09/12 10:07:00;;;;;;;4.47;1.98;;;31.00;87.50;;;;;;5049946;28;20037;-71
2022/09/12 10:09:36;;;;;;;2.88;1.70;;;31.20;87.40;;;;;;5049705;28;20370;-71
2022/09/12 10:12:27;;;;;;;3.03;1.60;;;31.20;86.00;;;;;;5049137;28;20079;-71
2022/09/12 10:15:14;;;;;;;4.18;2.03;;;31.20;86.20;;;;;;5049508;28;20128;-72
2022/09/12 10:17:44;;;;;;;5.63;1.67;;;31.10;87.40;;;;;;5049406;28;20685;-72
2022/09/12 10:20:31;;;;;;;4.13;2.13;;;31.10;87.90;;;;;;5048781;28;20087;-71
2022/09/12 10:23:25;;;;;;;4.72;2.53;;;31.10;88.40;;;;;;5046652;28;20155;-71
2022/09/12 10:25:56;;;;;;;4.15;2.00;;;30.90;89.50;;;;;;5049928;28;20094;-72
2022/09/12 10:28:52;;;;;;;3.78;1.88;;;30.60;90.40;;;;;;5048745;28;20155;-72
2022/09/12 10:31:40;;;;;;;4.80;2.40;;;30.50;90.80;;;;;;5044719;28;20056;-72
2022/09/12 10:34:26;;;;;;;4.47;2.45;;;30.60;91.10;;;;;;5031605;28;20049;-71
2022/09/12 10:37:00;;;;;;;2.65;1.90;;;30.60;91.00;;;;;;5048252;28;20036;-71
2022/09/12 10:39:30;;;;;;;5.10;2.30;;;30.80;90.70;;;;;;5048108;28;20169;-71
2022/09/12 10:41:58;;;;;;;6.78;3.50;;;30.80;90.40;;;;;;5047821;28;20033;-72
2022/09/12 10:44:31;;;;;;;5.95;3.05;;;30.80;90.50;;;;;;5047168;28;20052;-72
2022/09/12 10:47:18;;;;;;;3.55;2.20;;;30.70;90.10;;;;;;5031858;28;20259;-72
2022/09/12 10:49:46;;;;;;;5.65;2.85;;;30.80;90.20;;;;;;5031466;28;20041;-72
2022/09/12 10:52:24;;;;;;;4.65;2.13;;;30.60;90.60;;;;;;5049005;28;20507;-73
2022/09/12 10:54:52;;;;;;;4.80;1.98;;;30.50;90.70;;;;;;5048185;28;20083;-72
2022/09/12 10:57:50;;;;;;;4.40;1.42;;;30.30;90.00;;;;;;5049225;28;20044;-71
2022/09/12 11:00:26;;;;;;;4.10;1.83;;;30.30;90.00;;;;;;5031434;28;20061;-71
2022/09/12 11:02:58;;;;;;;5.90;1.60;;;30.20;89.90;;;;;;5031047;28;20073;-72
2022/09/12 11:05:55;;;;;;;3.72;1.63;;;30.30;89.70;;;;;;5047676;28;20045;-71
2022/09/12 11:08:38;;;;;;;3.05;1.45;;;30.40;89.50;;;;;;5031024;28;20076;-72
2022/09/12 11:11:19;;;;;;;4.10;1.70;;;30.50;90.10;;;;;;5030615;28;20053;-71
2022/09/12 11:14:05;;;;;;;4.13;2.08;;;30.60;90.10;;;;;;5047579;28;20049;-71
2022/09/12 11:17:09;;;;;;;2.97;1.58;;;30.60;90.10;;;;;;5031222;28;20045;-72
2022/09/12 11:19:49;;;;;;;3.63;2.08;;;30.60;88.20;;;;;;5030864;28;20064;-72
2022/09/12 11:22:47;;;;;;;3.40;1.73;;;30.60;89.10;;;;;;5045085;28;20045;-72
2022/09/12 11:25:41;;;;;;;2.85;1.50;;;30.60;89.80;;;;;;5047368;28;20151;-71
2022/09/12 11:28:27;;;;;;;3.08;1.88;;;30.60;89.50;;;;;;5047989;28;20096;-73
2022/09/12 11:31:11;;;;;;;2.53;1.55;;;30.60;89.30;;;;;;5047503;28;20033;-71
2022/09/12 11:33:45;;;;;;;2.60;1.92;;;30.50;88.70;;;;;;5030818;28;20140;-71
2022/09/12 11:36:40;;;;;;;3.43;2.03;;;30.60;89.30;;;;;;5046889;28;20053;-70
2022/09/12 11:39:16;;;;;;;4.53;2.00;;;30.50;89.90;;;;;;5047151;28;20115;-71
2022/09/12 11:41:49;;;;;;;4.75;1.98;;;30.30;90.20;;;;;;5047298;28;20045;-72
2022/09/12 11:44:27;;;;;;;6.72;4.40;;;30.20;90.10;;;;;;5030438;28;20041;-71
2022/09/12 11:46:55;;;;;;;6.28;3.15;;;30.00;88.50;;;;;;5030320;28;20049;-72
2022/09/12 11:49:48;;;;;;;5.28;2.08;;;29.90;88.30;;;;;;5046811;28;20041;-72
2022/09/12 11:52:16;;;;;;;4.97;1.73;;;29.90;89.70;;;;;;5030083;28;20049;-72
2022/09/12 11:54:47;;;;;;;5.32;2.45;;;30.00;88.80;;;;;;5046513;28;20061;-72
2022/09/12 11:57:40;;;;;;;5.28;2.25;;;30.00;88.30;;;;;;5015060;28;20049;-72
2022/09/12 12:00:26;;;;;;;5.32;2.08;;;30.00;87.80;;;;;;5030567;28;20049;-73
2022/09/12 12:02:56;;;;;;;4.55;2.10;;;30.00;87.80;;;;;;5047108;28;20045;-72
2022/09/12 12:05:39;;;;;;;6.38;1.95;;;30.00;87.40;;;;;;5048427;28;20371;-73
2022/09/12 12:08:08;;;;;;;7.60;2.28;;;30.00;87.50;;;;;;5029914;28;20056;-74
2022/09/12 12:10:52;;;;;;;2.90;1.85;;;29.90;86.70;;;;;;5046773;28;20170;-73
2022/09/12 12:13:30;;;;;;;4.00;2.08;;;29.90;87.50;;;;;;5030267;28;20045;-72
2022/09/12 12:16:26;;;;;;;3.03;1.77;;;29.80;88.60;;;;;;5046660;28;20137;-72
2022/09/12 12:18:59;;;;;;;;;;;29.80;88.10;;;;;;5023625;28;20414;-72
2022/09/12 12:21:49;;;;;;;10.98;2.80;;;29.70;86.70;;;;;;5009433;28;19933;-73
2022/09/12 12:24:24;;;;;;;2.83;1.70;;;29.60;88.00;;;;;;5032041;28;20091;-72
2022/09/12 12:26:56;;;;;;;2.15;1.60;;;29.60;87.80;;;;;;5011927;28;20072;-73
2022/09/12 12:29:43;;;;;;;4.22;2.25;;;29.60;87.30;;;;;;5034319;28;20091;-72
2022/09/12 12:32:11;;;;;;;3.65;1.83;;;29.50;86.80;;;;;;5027576;28;20052;-73
2022/09/12 12:34:41;;;;;;;7.63;4.40;;;29.50;85.40;;;;;;5032007;28;20194;-74
2022/09/12 12:37:18;;;;;;;8.57;5.68;;;29.50;87.20;;;;;;5034175;28;20120;-72
2022/09/12 12:39:49;;;;;;;4.70;2.97;;;29.50;87.10;;;;;;5027055;28;20526;-72
2022/09/12 12:42:35;;;;;;;6.82;3.10;;;29.50;87.80;;;;;;5029399;28;20046;-73
2022/09/12 12:45:26;;;;;;;10.25;8.45;;;29.40;86.60;;;;;;5013394;28;20503;-73
2022/09/12 12:47:56;;;;;;;7.72;5.30;;;29.30;87.30;;;;;;5040350;28;20081;-73
2022/09/12 12:50:28;;;;;;;8.35;3.22;;;29.30;88.60;;;;;;5035252;28;20045;-72
2022/09/12 12:53:05;;;;;;;7.45;4.13;;;29.30;88.30;;;;;;5033502;28;20061;-73
2022/09/12 12:55:37;;;;;;;4.35;2.22;;;29.30;86.90;;;;;;5028006;28;20243;-73
2022/09/12 12:58:17;;;;;;;4.70;1.90;;;29.30;86.60;;;;;;5029685;28;20479;-73
2022/09/12 13:00:45;;;;;;;3.17;2.00;;;29.20;86.90;;;;;;5027461;28;20168;-73
2022/09/12 13:03:28;;;;;;;3.08;1.50;;;29.20;86.50;;;;;;5032720;28;20835;-73
2022/09/12 13:06:01;;;;;;;3.00;1.55;;;29.20;86.70;;;;;;5009407;28;20060;-73
2022/09/12 13:08:32;;;;;;;3.00;1.67;;;29.20;88.30;;;;;;5036064;28;20084;-73
2022/09/12 13:11:02;;;;;;;2.55;1.88;;;29.20;87.60;;;;;;5029685;28;20201;-72
2022/09/12 13:13:32;;;;;;;5.18;2.10;;;29.10;88.70;;;;;;5033693;28;20399;-73
2022/09/12 13:16:00;;;;;;;5.45;2.17;;;29.10;88.50;;;;;;5027475;28;20053;-73
2022/09/12 13:18:47;;;;;;;6.15;1.70;;;29.10;89.50;;;;;;5037260;28;20519;-74
2022/09/12 13:21:20;;;;;;;2.47;1.40;;;29.10;89.70;;;;;;5037387;28;20175;-73
2022/09/12 13:24:02;;;;;;;2.47;1.67;;;28.90;89.40;;;;;;5028595;28;20096;-72
2022/09/12 13:26:40;;;;;;;3.53;1.73;;;28.80;88.10;;;;;;5020045;28;20058;-75
2022/09/12 13:29:22;;;;;;;3.75;1.30;;;28.70;87.10;;;;;;5021307;28;20152;-76